createdAt,value
2022-11-08T00:01:54.950Z,59.20
2022-11-08T00:04:21.682Z,59.20
2022-11-08T00:07:06.768Z,59.20
2022-11-08T00:09:52.111Z,59.20
2022-11-08T00:12:37.557Z,59.20
2022-11-08T00:15:04.689Z,59.20
2022-11-08T00:17:31.485Z,59.20
2022-11-08T00:19:58.064Z,59.20
2022-11-08T00:22:24.811Z,59.20
2022-11-08T00:24:51.934Z,59.20
2022-11-08T00:27:20.415Z,59.20
2022-11-08T00:29:46.986Z,59.20
2022-11-08T00:32:17.264Z,59.30
2022-11-08T00:34:43.952Z,59.30
2022-11-08T00:37:10.573Z,59.30
2022-11-08T00:39:37.273Z,59.30
2022-11-08T00:42:04.054Z,59.30
2022-11-08T00:44:30.650Z,59.30
2022-11-08T00:46:57.229Z,59.20
2022-11-08T00:49:23.797Z,59.30
2022-11-08T00:51:50.353Z,59.40
2022-11-08T00:54:18.963Z,59.30
2022-11-08T00:56:46.061Z,59.20
2022-11-08T00:59:13.807Z,59.30
2022-11-08T01:01:40.720Z,59.20
2022-11-08T01:04:07.782Z,59.30
2022-11-08T01:06:34.363Z,59.30
2022-11-08T01:09:01.537Z,59.30
2022-11-08T01:11:28.229Z,59.30
2022-11-08T01:13:58.627Z,59.40
2022-11-08T01:16:26.600Z,59.30
2022-11-08T01:18:53.999Z,59.30
2022-11-08T01:21:20.762Z,59.20
2022-11-08T01:23:47.369Z,59.20
2022-11-08T01:26:15.582Z,59.20
2022-11-08T01:28:42.190Z,59.30
2022-11-08T01:31:13.329Z,59.10
2022-11-08T01:33:40.182Z,59.20
2022-11-08T01:36:11.372Z,59.20
2022-11-08T01:38:38.062Z,59.20
2022-11-08T01:41:04.769Z,59.30
2022-11-08T01:43:31.260Z,59.30
2022-11-08T01:46:03.268Z,59.30
2022-11-08T01:48:29.849Z,59.20
2022-11-08T01:50:56.795Z,59.30
2022-11-08T01:53:23.851Z,59.30
2022-11-08T01:55:50.411Z,59.20
2022-11-08T01:58:18.800Z,59.80
2022-11-08T02:00:45.789Z,59.30
2022-11-08T02:03:14.146Z,59.20
2022-11-08T02:05:40.728Z,59.30
2022-11-08T02:08:12.091Z,59.20
2022-11-08T02:10:40.537Z,59.30
2022-11-08T02:13:18.847Z,59.30
2022-11-08T02:15:45.529Z,59.30
2022-11-08T02:18:12.451Z,59.30
2022-11-08T02:20:39.042Z,59.30
2022-11-08T02:23:14.044Z,59.30
2022-11-08T02:25:40.604Z,59.40
2022-11-08T02:28:07.495Z,59.30
2022-11-08T02:30:34.928Z,59.30
2022-11-08T02:33:13.518Z,59.20
2022-11-08T02:35:40.077Z,59.30
2022-11-08T02:38:06.654Z,59.20
2022-11-08T02:40:51.686Z,59.20
2022-11-08T02:43:18.302Z,59.10
2022-11-08T02:45:45.014Z,59.20
2022-11-08T02:48:11.640Z,59.30
2022-11-08T02:50:38.360Z,59.20
2022-11-08T02:53:05.070Z,59.20
2022-11-08T02:55:32.947Z,59.20
2022-11-08T02:57:59.505Z,59.20
2022-11-08T03:00:26.107Z,59.20
2022-11-08T03:02:56.047Z,59.20
2022-11-08T03:05:22.692Z,59.20
2022-11-08T03:07:49.310Z,59.10
2022-11-08T03:10:16.081Z,59.20
2022-11-08T03:12:45.618Z,59.30
2022-11-08T03:15:12.813Z,59.30
2022-11-08T03:17:39.478Z,59.30
2022-11-08T03:20:06.863Z,59.40
2022-11-08T03:22:33.442Z,59.40
2022-11-08T03:25:00.030Z,59.40
2022-11-08T03:27:26.994Z,59.40
2022-11-08T03:29:53.564Z,59.40
2022-11-08T03:32:20.144Z,59.40
2022-11-08T03:34:46.896Z,59.40
2022-11-08T03:37:13.475Z,59.30
2022-11-08T03:39:40.056Z,59.40
2022-11-08T03:42:07.917Z,59.40
2022-11-08T03:44:34.499Z,59.30
2022-11-08T03:47:01.222Z,59.30
2022-11-08T03:49:28.046Z,59.30
2022-11-08T03:51:54.790Z,59.20
2022-11-08T03:54:21.373Z,59.20
2022-11-08T03:56:47.934Z,59.20
2022-11-08T03:59:14.535Z,59.30
2022-11-08T04:01:41.283Z,59.30
2022-11-08T04:04:08.044Z,59.20
2022-11-08T04:06:34.773Z,59.20
2022-11-08T04:09:01.353Z,59.20
2022-11-08T04:11:46.469Z,59.20
2022-11-08T04:14:31.811Z,59.20
2022-11-08T04:16:58.377Z,59.30
2022-11-08T04:19:43.449Z,59.20
2022-11-08T04:22:10.570Z,59.30
2022-11-08T04:24:37.267Z,59.30
2022-11-08T04:27:03.916Z,59.30
2022-11-08T04:29:30.632Z,59.40
2022-11-08T04:31:57.197Z,59.30
2022-11-08T04:34:23.780Z,59.30
2022-11-08T04:36:50.345Z,59.20
2022-11-08T04:39:16.941Z,59.30
2022-11-08T04:41:43.547Z,59.30
2022-11-08T04:44:10.330Z,59.40
2022-11-08T04:46:36.893Z,59.40
2022-11-08T04:49:03.475Z,59.40
2022-11-08T04:51:31.481Z,59.40
2022-11-08T04:53:59.571Z,59.30
2022-11-08T04:56:27.315Z,59.20
2022-11-08T04:58:55.396Z,59.20
2022-11-08T05:01:23.346Z,59.20
2022-11-08T05:03:51.214Z,59.20
2022-11-08T05:06:21.608Z,59.30
2022-11-08T05:08:48.371Z,59.20
2022-11-08T05:11:20.181Z,59.30
2022-11-08T05:13:46.945Z,59.20
2022-11-08T05:16:18.319Z,59.20
2022-11-08T05:18:44.958Z,59.00
2022-11-08T05:21:31.469Z,59.10
2022-11-08T05:23:58.348Z,58.90
2022-11-08T05:26:25.243Z,58.80
2022-11-08T05:28:51.820Z,58.90
2022-11-08T05:31:18.620Z,59.00
2022-11-08T05:33:45.345Z,58.80
2022-11-08T05:36:13.173Z,58.80
2022-11-08T05:38:39.991Z,58.80
2022-11-08T05:41:15.724Z,58.70
2022-11-08T05:43:42.313Z,58.60
2022-11-08T05:46:08.952Z,58.60
2022-11-08T05:48:35.567Z,58.50
2022-11-08T05:51:02.162Z,58.50
2022-11-08T05:53:28.781Z,58.30
2022-11-08T05:55:59.410Z,58.40
2022-11-08T05:58:26.899Z,58.40
2022-11-08T06:01:04.277Z,58.40
2022-11-08T06:03:31.502Z,57.80
2022-11-08T06:06:05.813Z,57.50
2022-11-08T06:08:32.511Z,57.80
2022-11-08T06:11:06.784Z,57.60
2022-11-08T06:13:33.750Z,57.70
2022-11-08T06:16:04.857Z,57.70
2022-11-08T06:18:31.814Z,57.70
2022-11-08T06:21:01.762Z,58.50
2022-11-08T06:23:28.407Z,58.30
2022-11-08T06:25:54.995Z,57.90
2022-11-08T06:28:21.688Z,57.80
2022-11-08T06:30:48.386Z,57.90
2022-11-08T06:33:15.360Z,57.80
2022-11-08T06:35:42.486Z,57.90
2022-11-08T06:38:09.582Z,57.80
2022-11-08T06:40:37.914Z,57.80
2022-11-08T06:43:04.578Z,57.90
2022-11-08T06:45:31.442Z,57.80
2022-11-08T06:47:58.747Z,57.80
2022-11-08T06:50:25.596Z,57.80
2022-11-08T06:53:00.844Z,57.80
2022-11-08T06:55:27.446Z,57.70
2022-11-08T06:57:54.148Z,57.70
2022-11-08T07:00:20.867Z,57.80
2022-11-08T07:02:54.207Z,57.70
2022-11-08T07:05:21.377Z,57.80
2022-11-08T07:07:51.951Z,57.80
2022-11-08T07:10:22.521Z,57.80
2022-11-08T07:12:50.789Z,57.80
2022-11-08T07:15:17.524Z,57.80
2022-11-08T07:17:44.120Z,57.80
2022-11-08T07:20:11.152Z,57.90
2022-11-08T07:22:37.757Z,57.90
2022-11-08T07:25:04.662Z,57.80
2022-11-08T07:27:31.271Z,57.90
2022-11-08T07:29:57.862Z,57.90
2022-11-08T07:32:24.453Z,57.90
2022-11-08T07:34:51.026Z,58.00
2022-11-08T07:37:17.660Z,57.90
2022-11-08T07:39:44.237Z,58.00
2022-11-08T07:42:10.813Z,58.00
2022-11-08T07:44:37.540Z,58.10
2022-11-08T07:47:04.414Z,58.10
2022-11-08T07:49:31.015Z,57.90
2022-11-08T07:51:57.600Z,57.90
2022-11-08T07:54:24.182Z,57.90
2022-11-08T07:56:50.794Z,57.90
2022-11-08T07:59:17.465Z,57.90
2022-11-08T08:01:44.115Z,57.90
2022-11-08T08:04:12.166Z,58.00
2022-11-08T08:06:38.750Z,57.90
2022-11-08T08:09:05.346Z,57.90
2022-11-08T08:11:33.822Z,57.90
2022-11-08T08:14:00.617Z,57.90
2022-11-08T08:16:27.243Z,58.00
2022-11-08T08:18:56.551Z,58.00
2022-11-08T08:21:23.347Z,57.90
2022-11-08T08:23:49.911Z,58.00
2022-11-08T08:26:16.500Z,58.10
2022-11-08T08:28:43.090Z,58.10
2022-11-08T08:31:09.716Z,58.10
2022-11-08T08:33:37.871Z,58.10
2022-11-08T08:36:04.994Z,58.10
2022-11-08T08:38:32.083Z,58.10
2022-11-08T08:40:58.759Z,58.20
2022-11-08T08:43:27.408Z,58.10
2022-11-08T08:45:54.459Z,58.20
2022-11-08T08:48:21.243Z,58.20
2022-11-08T08:50:48.235Z,58.20
2022-11-08T08:53:15.045Z,58.40
2022-11-08T08:55:42.783Z,58.10
2022-11-08T08:58:10.783Z,58.10
2022-11-08T09:03:24.029Z,58.00
2022-11-08T09:05:50.625Z,58.20
2022-11-08T09:08:17.205Z,58.10
2022-11-08T09:10:43.800Z,58.10
2022-11-08T09:13:10.439Z,58.10
2022-11-08T09:15:37.167Z,58.20
2022-11-08T09:18:04.049Z,58.10
2022-11-08T09:20:30.673Z,58.10
2022-11-08T09:23:02.427Z,58.10
2022-11-08T09:25:28.999Z,58.20
2022-11-08T09:27:55.833Z,58.10
2022-11-08T09:30:22.484Z,58.20
2022-11-08T09:33:04.401Z,58.10
2022-11-08T09:35:31.083Z,58.20
2022-11-08T09:37:57.948Z,58.20
2022-11-08T09:40:30.280Z,58.20
2022-11-08T09:43:21.495Z,58.30
2022-11-08T09:45:49.250Z,58.30
2022-11-08T09:48:30.154Z,58.40
2022-11-08T09:50:57.261Z,58.50
2022-11-08T09:53:57.225Z,58.50
2022-11-08T09:56:26.834Z,58.50
2022-11-08T09:59:01.854Z,58.50
2022-11-08T10:01:33.100Z,58.50
2022-11-08T10:04:22.399Z,58.50
2022-11-08T10:07:02.967Z,58.50
2022-11-08T10:09:35.779Z,58.50
2022-11-08T10:12:32.924Z,58.40
2022-11-08T10:15:10.799Z,58.40
2022-11-08T10:17:49.111Z,58.30
2022-11-08T10:20:36.893Z,58.30
2022-11-08T10:23:27.222Z,58.30
2022-11-08T10:26:01.360Z,58.30
2022-11-08T10:28:34.417Z,58.30
2022-11-08T10:31:01.064Z,58.40
2022-11-08T10:33:36.856Z,58.30
2022-11-08T10:36:25.279Z,58.30
2022-11-08T10:39:11.172Z,58.40
2022-11-08T10:42:04.664Z,58.40
2022-11-08T10:44:31.249Z,58.50
2022-11-08T10:46:59.483Z,58.50
2022-11-08T10:49:27.710Z,58.60
2022-11-08T10:51:56.101Z,58.60
2022-11-08T10:54:42.478Z,58.70
2022-11-08T10:57:10.651Z,58.70
2022-11-08T10:59:37.249Z,58.70
2022-11-08T11:02:09.012Z,58.80
2022-11-08T11:04:35.807Z,58.70
2022-11-08T11:07:03.083Z,58.80
2022-11-08T11:09:29.790Z,58.80
2022-11-08T11:11:57.903Z,58.70
2022-11-08T11:14:24.500Z,58.70
2022-11-08T11:17:03.877Z,58.80
2022-11-08T11:19:30.441Z,58.80
2022-11-08T11:22:07.371Z,58.80
2022-11-08T11:24:37.502Z,58.80
2022-11-08T11:27:07.481Z,58.80
2022-11-08T11:29:35.290Z,58.80
2022-11-08T11:32:25.509Z,58.80
2022-11-08T11:34:59.424Z,58.80
2022-11-08T11:37:34.765Z,58.80
2022-11-08T11:40:07.265Z,58.90
2022-11-08T11:42:56.908Z,58.90
2022-11-08T11:45:31.192Z,59.00
2022-11-08T11:48:01.226Z,59.00
2022-11-08T11:50:35.390Z,59.00
2022-11-08T11:53:04.884Z,59.00
2022-11-08T11:55:56.469Z,59.00
2022-11-08T11:58:38.021Z,59.00
2022-11-08T12:01:27.746Z,58.90
2022-11-08T12:04:04.696Z,58.90
2022-11-08T12:06:44.408Z,58.90
2022-11-08T12:09:49.446Z,58.80
2022-11-08T12:12:38.339Z,58.80
2022-11-08T12:15:37.563Z,58.90
2022-11-08T12:18:42.282Z,58.80
2022-11-08T12:21:25.046Z,58.80
2022-11-08T12:24:16.815Z,58.80
2022-11-08T12:27:36.217Z,58.80
2022-11-08T12:30:17.654Z,59.20
2022-11-08T12:33:04.046Z,59.30
2022-11-08T12:35:46.040Z,59.20
2022-11-08T12:38:20.829Z,59.20
2022-11-08T12:41:21.382Z,59.20
2022-11-08T12:44:11.322Z,59.10
2022-11-08T12:47:00.603Z,59.20
2022-11-08T12:49:33.114Z,60.40
2022-11-08T12:52:10.593Z,59.90
2022-11-08T12:54:39.612Z,59.60
2022-11-08T12:57:10.049Z,59.60
2022-11-08T12:59:49.007Z,59.50
2022-11-08T13:02:24.509Z,59.50
2022-11-08T13:04:51.019Z,59.30
2022-11-08T13:07:26.483Z,59.70
2022-11-08T13:09:53.006Z,59.30
2022-11-08T13:12:22.457Z,59.20
2022-11-08T13:14:49.053Z,59.20
2022-11-08T13:17:17.230Z,59.20
2022-11-08T13:19:46.840Z,59.20
2022-11-08T13:22:31.991Z,59.10
2022-11-08T13:25:14.290Z,59.20
2022-11-08T13:27:44.390Z,59.20
2022-11-08T13:30:10.905Z,59.00
2022-11-08T13:32:43.036Z,59.00
2022-11-08T13:35:31.121Z,59.00
2022-11-08T13:38:14.191Z,59.10
2022-11-08T13:40:53.396Z,59.00
2022-11-08T13:43:31.831Z,59.00
2022-11-08T13:46:20.501Z,59.00
2022-11-08T13:49:04.984Z,59.10
2022-11-08T13:51:32.699Z,59.00
2022-11-08T13:54:21.273Z,58.90
2022-11-08T13:56:54.452Z,59.00
2022-11-08T13:59:33.097Z,58.90
2022-11-08T14:01:59.870Z,58.90
2022-11-08T14:04:38.594Z,58.90
2022-11-08T14:07:25.698Z,58.80
2022-11-08T14:10:13.074Z,58.80
2022-11-08T14:13:02.774Z,58.80
2022-11-08T14:15:40.955Z,58.80
2022-11-08T14:18:16.757Z,58.90
2022-11-08T14:20:44.073Z,59.00
2022-11-08T14:23:20.165Z,59.00
2022-11-08T14:25:50.379Z,59.10
2022-11-08T14:28:30.132Z,59.10
2022-11-08T14:30:57.060Z,59.10
2022-11-08T14:33:30.761Z,59.10
2022-11-08T14:36:05.199Z,59.20
2022-11-08T14:38:34.019Z,59.10
2022-11-08T14:41:04.663Z,59.20
2022-11-08T14:43:32.856Z,59.20
2022-11-08T14:45:59.453Z,59.20
2022-11-08T14:48:29.532Z,59.10
2022-11-08T14:51:00.462Z,59.20
2022-11-08T14:53:32.048Z,59.00
2022-11-08T14:56:18.561Z,59.00
2022-11-08T14:58:45.423Z,58.90
2022-11-08T15:01:12.130Z,58.80
2022-11-08T15:03:39.096Z,58.80
2022-11-08T15:06:12.592Z,58.80
2022-11-08T15:08:50.397Z,58.80
2022-11-08T15:11:29.215Z,58.80
2022-11-08T15:14:02.854Z,58.70
2022-11-08T15:16:43.031Z,58.60
2022-11-08T15:19:37.277Z,58.70
2022-11-08T15:22:22.571Z,58.70
2022-11-08T15:24:59.202Z,58.70
2022-11-08T15:27:25.779Z,58.70
2022-11-08T15:30:02.253Z,58.80
2022-11-08T15:32:35.141Z,58.80
2022-11-08T15:35:01.732Z,59.10
2022-11-08T15:37:29.355Z,59.00
2022-11-08T15:39:55.991Z,58.90
2022-11-08T15:42:22.559Z,58.90
2022-11-08T15:45:05.346Z,59.00
2022-11-08T15:47:41.644Z,58.80
2022-11-08T15:50:15.783Z,59.00
2022-11-08T15:52:42.955Z,58.90
2022-11-08T15:55:12.886Z,58.90
2022-11-08T15:57:41.149Z,58.80
2022-11-08T16:00:14.294Z,58.80
2022-11-08T16:02:40.868Z,58.80
2022-11-08T16:05:15.727Z,58.80
2022-11-08T16:07:43.974Z,58.70
2022-11-08T16:10:11.142Z,59.00
2022-11-08T16:12:42.385Z,59.10
2022-11-08T16:15:20.285Z,58.70
2022-11-08T16:17:46.960Z,58.90
2022-11-08T16:20:30.837Z,58.80
2022-11-08T16:22:58.065Z,70.10
2022-11-08T16:25:25.006Z,61.20
2022-11-08T16:28:08.313Z,62.60
2022-11-08T16:30:35.478Z,63.40
2022-11-08T16:33:18.618Z,61.10
2022-11-08T16:35:45.203Z,60.10
2022-11-08T16:38:11.826Z,60.20
2022-11-08T16:40:41.123Z,59.80
2022-11-08T16:43:10.717Z,59.70
2022-11-08T16:46:03.643Z,59.70
2022-11-08T16:48:24.707Z,59.60
2022-11-08T16:50:51.822Z,59.60
2022-11-08T16:53:19.503Z,59.60
2022-11-08T16:55:46.486Z,59.50
2022-11-08T16:58:13.228Z,59.50
2022-11-08T17:00:40.741Z,59.40
2022-11-08T17:03:07.317Z,59.40
2022-11-08T17:05:33.901Z,59.40
2022-11-08T17:08:00.469Z,59.20
2022-11-08T17:10:28.339Z,59.20
2022-11-08T17:12:54.926Z,59.20
2022-11-08T17:15:23.255Z,59.20
2022-11-08T17:17:50.321Z,59.20
2022-11-08T17:20:17.997Z,59.20
2022-11-08T17:22:44.920Z,59.20
2022-11-08T17:25:13.653Z,59.10
2022-11-08T17:27:40.625Z,59.10
2022-11-08T17:30:07.619Z,59.10
2022-11-08T17:32:35.553Z,59.00
2022-11-08T17:35:03.586Z,59.00
2022-11-08T17:37:30.574Z,59.00
2022-11-08T17:39:57.296Z,59.00
2022-11-08T17:42:24.021Z,59.00
2022-11-08T17:44:50.705Z,59.10
2022-11-08T17:47:17.468Z,59.10
2022-11-08T17:49:44.289Z,59.10
2022-11-08T17:52:11.678Z,59.10
2022-11-08T17:54:38.283Z,59.10
2022-11-08T17:57:04.853Z,59.10
2022-11-08T17:59:31.435Z,59.10
2022-11-08T18:01:58.068Z,59.20
2022-11-08T18:04:24.684Z,59.20
2022-11-08T18:06:51.318Z,59.20
2022-11-08T18:09:17.938Z,59.20
2022-11-08T18:11:47.724Z,59.20
2022-11-08T18:14:18.419Z,59.20
2022-11-08T18:16:45.177Z,59.20
2022-11-08T18:19:11.745Z,59.20
2022-11-08T18:21:38.315Z,59.00
2022-11-08T18:24:05.022Z,59.00
2022-11-08T18:26:31.613Z,59.10
2022-11-08T18:28:58.321Z,59.10
2022-11-08T18:31:26.176Z,59.00
2022-11-08T18:33:52.759Z,59.00
2022-11-08T18:36:23.578Z,59.30
2022-11-08T18:38:51.309Z,59.10
2022-11-08T18:41:20.262Z,59.00
2022-11-08T18:43:46.846Z,59.60
2022-11-08T18:46:15.093Z,59.20
2022-11-08T18:48:41.741Z,59.10
2022-11-08T18:51:10.476Z,59.10
2022-11-08T18:53:37.448Z,59.00
2022-11-08T18:56:04.175Z,59.00
2022-11-08T18:58:30.877Z,58.90
2022-11-08T19:00:57.547Z,59.00
2022-11-08T19:03:24.259Z,58.90
2022-11-08T19:05:50.890Z,58.90
2022-11-08T19:08:19.980Z,58.70
2022-11-08T19:10:53.235Z,58.70
2022-11-08T19:13:20.492Z,58.80
2022-11-08T19:15:56.240Z,58.90
2022-11-08T19:18:22.883Z,59.00
2022-11-08T19:21:02.759Z,58.90
2022-11-08T19:23:29.539Z,58.90
2022-11-08T19:26:06.973Z,59.00
2022-11-08T19:28:35.195Z,58.90
2022-11-08T19:31:01.926Z,58.80
2022-11-08T19:33:29.186Z,59.50
2022-11-08T19:35:56.127Z,58.90
2022-11-08T19:38:22.735Z,58.90
2022-11-08T19:40:49.536Z,58.80
2022-11-08T19:43:16.666Z,58.80
2022-11-08T19:45:49.160Z,58.70
2022-11-08T19:48:17.842Z,58.70
2022-11-08T19:50:44.681Z,59.20
2022-11-08T19:53:11.283Z,58.60
2022-11-08T19:55:37.944Z,58.50
2022-11-08T19:58:04.522Z,58.50
2022-11-08T20:00:31.105Z,58.50
2022-11-08T20:02:57.667Z,58.50
2022-11-08T20:05:24.266Z,58.40
2022-11-08T20:07:50.833Z,58.50
2022-11-08T20:10:17.590Z,58.70
2022-11-08T20:12:44.190Z,58.80
2022-11-08T20:15:10.916Z,58.80
2022-11-08T20:17:37.531Z,58.70
2022-11-08T20:20:05.531Z,58.70
2022-11-08T20:22:32.148Z,58.60
2022-11-08T20:24:58.710Z,58.70
2022-11-08T20:27:25.293Z,58.60
2022-11-08T20:29:51.894Z,58.70
2022-11-08T20:32:18.500Z,58.70
2022-11-08T20:34:46.047Z,58.70
2022-11-08T20:37:14.516Z,58.70
2022-11-08T20:39:41.177Z,58.70
2022-11-08T20:42:07.766Z,58.80
2022-11-08T20:44:34.395Z,58.70
2022-11-08T20:47:06.307Z,58.80
2022-11-08T20:49:33.400Z,58.70
2022-11-08T20:52:00.008Z,58.70
2022-11-08T20:54:26.607Z,58.70
2022-11-08T20:56:53.201Z,58.70
2022-11-08T20:59:19.819Z,58.70
2022-11-08T21:01:46.451Z,58.60
2022-11-08T21:04:13.170Z,58.60
2022-11-08T21:06:39.888Z,58.60
2022-11-08T21:11:53.388Z,58.60
2022-11-08T21:14:19.984Z,58.60
2022-11-08T21:17:19.645Z,58.60
2022-11-08T21:19:33.139Z,58.60
2022-11-08T21:22:14.796Z,58.70
2022-11-08T21:24:42.058Z,58.70
2022-11-08T21:27:08.701Z,58.70
2022-11-08T21:29:35.293Z,58.70
2022-11-08T21:32:01.984Z,58.80
2022-11-08T21:34:32.545Z,58.80
2022-11-08T21:36:59.419Z,58.80
2022-11-08T21:39:26.021Z,58.80
2022-11-08T21:41:52.637Z,58.80
2022-11-08T21:44:19.769Z,58.80
2022-11-08T21:46:46.394Z,58.80
2022-11-08T21:49:13.086Z,58.80
2022-11-08T21:51:39.737Z,58.90
2022-11-08T21:54:06.498Z,58.90
2022-11-08T21:56:34.168Z,58.90
2022-11-08T21:59:01.150Z,59.00
2022-11-08T22:01:30.608Z,58.90
2022-11-08T22:04:01.070Z,58.90
2022-11-08T22:06:28.206Z,59.00
2022-11-08T22:08:54.912Z,59.00
2022-11-08T22:11:21.572Z,59.00
2022-11-08T22:13:48.158Z,58.90
2022-11-08T22:16:14.757Z,58.90
2022-11-08T22:21:40.762Z,58.90
2022-11-08T22:24:17.075Z,58.90
2022-11-08T22:26:43.774Z,58.80
2022-11-08T22:29:10.453Z,58.80
2022-11-08T22:31:37.231Z,58.80
2022-11-08T22:34:03.929Z,58.80
2022-11-08T22:36:30.524Z,58.90
2022-11-08T22:38:57.138Z,58.90
2022-11-08T22:41:23.926Z,58.90
2022-11-08T22:43:50.531Z,59.00
2022-11-08T22:46:17.228Z,59.00
2022-11-08T22:48:43.905Z,59.00
2022-11-08T22:51:10.585Z,59.00
2022-11-08T22:53:37.188Z,58.90
2022-11-08T22:56:08.470Z,59.00
2022-11-08T22:58:37.615Z,59.00
2022-11-08T23:01:04.344Z,59.00
2022-11-08T23:03:30.925Z,59.00
2022-11-08T23:05:57.665Z,58.90
2022-11-08T23:08:26.229Z,59.00
2022-11-08T23:11:11.281Z,59.00
2022-11-08T23:13:56.681Z,59.00
2022-11-08T23:16:35.015Z,59.00
2022-11-08T23:19:25.260Z,59.00
2022-11-08T23:22:10.720Z,59.00
2022-11-08T23:24:37.371Z,59.00
2022-11-08T23:27:22.955Z,58.90
2022-11-08T23:30:08.230Z,58.80
2022-11-08T23:32:34.957Z,58.80
2022-11-08T23:35:01.791Z,58.70
2022-11-08T23:37:28.440Z,58.60
2022-11-08T23:40:13.419Z,58.80
2022-11-08T23:42:58.725Z,58.80
2022-11-08T23:45:25.306Z,58.90
2022-11-08T23:47:52.685Z,59.10
2022-11-08T23:50:19.256Z,58.90
2022-11-08T23:52:45.842Z,58.90
2022-11-08T23:55:12.507Z,59.00
2022-11-08T23:57:39.099Z,58.90
